sensor_id;sensor_type;location;lat;lon;timestamp;temperature;humidity
21316;DHT22;10817;55.820;13.030;2024-01-11T12:44:52;8.00;1.00
21316;DHT22;10817;55.820;13.030;2024-01-11T12:47:19;10.40;1.00
21316;DHT22;10817;55.820;13.030;2024-01-11T12:49:46;6.50;1.00
21316;DHT22;10817;55.820;13.030;2024-01-11T12:52:16;6.50;1.00
21316;DHT22;10817;55.820;13.030;2024-01-11T12:54:43;5.90;1.00
21316;DHT22;10817;55.820;13.030;2024-01-11T12:57:17;7.70;1.00
21316;DHT22;10817;55.820;13.030;2024-01-11T12:59:52;6.90;1.00
21316;DHT22;10817;55.820;13.030;2024-01-11T13:02:20;6.50;1.00
21316;DHT22;10817;55.820;13.030;2024-01-11T13:04:47;7.40;1.00
21316;DHT22;10817;55.820;13.030;2024-01-11T13:07:16;10.20;1.00
21316;DHT22;10817;55.820;13.030;2024-01-11T13:09:43;7.20;1.00
21316;DHT22;10817;55.820;13.030;2024-01-11T13:12:10;7.20;1.00
21316;DHT22;10817;55.820;13.030;2024-01-11T13:14:37;8.20;1.00
21316;DHT22;10817;55.820;13.030;2024-01-11T13:17:07;7.40;1.00
21316;DHT22;10817;55.820;13.030;2024-01-11T13:19:34;7.50;1.00
21316;DHT22;10817;55.820;13.030;2024-01-11T13:22:01;7.70;1.00
21316;DHT22;10817;55.820;13.030;2024-01-11T13:24:28;7.70;1.00
21316;DHT22;10817;55.820;13.030;2024-01-11T13:26:55;7.60;1.00
21316;DHT22;10817;55.820;13.030;2024-01-11T13:29:22;7.50;1.00
21316;DHT22;10817;55.820;13.030;2024-01-11T13:31:48;6.80;1.00
21316;DHT22;10817;55.820;13.030;2024-01-11T13:34:16;6.40;1.00
21316;DHT22;10817;55.820;13.030;2024-01-11T13:36:44;6.40;1.00
21316;DHT22;10817;55.820;13.030;2024-01-11T13:39:11;6.20;1.00
21316;DHT22;10817;55.820;13.030;2024-01-11T13:41:38;5.90;1.00
21316;DHT22;10817;55.820;13.030;2024-01-11T13:44:06;7.10;1.00
21316;DHT22;10817;55.820;13.030;2024-01-11T13:46:35;5.10;6.40
21316;DHT22;10817;55.820;13.030;2024-01-11T13:49:01;4.40;39.30
21316;DHT22;10817;55.820;13.030;2024-01-11T13:51:30;3.70;86.60
21316;DHT22;10817;55.820;13.030;2024-01-11T13:53:57;3.40;99.90
21316;DHT22;10817;55.820;13.030;2024-01-11T13:56:26;3.00;99.90
21316;DHT22;10817;55.820;13.030;2024-01-11T13:58:53;2.40;99.90
21316;DHT22;10817;55.820;13.030;2024-01-11T14:01:20;2.30;99.90
21316;DHT22;10817;55.820;13.030;2024-01-11T14:03:47;2.10;99.90
21316;DHT22;10817;55.820;13.030;2024-01-11T14:06:14;1.90;99.90
21316;DHT22;10817;55.820;13.030;2024-01-11T14:08:42;1.70;99.90
21316;DHT22;10817;55.820;13.030;2024-01-11T14:11:09;1.40;99.90
21316;DHT22;10817;55.820;13.030;2024-01-11T14:13:36;1.30;99.90
21316;DHT22;10817;55.820;13.030;2024-01-11T14:16:03;1.20;99.90
21316;DHT22;10817;55.820;13.030;2024-01-11T14:18:30;1.10;99.90
21316;DHT22;10817;55.820;13.030;2024-01-11T14:20:57;1.00;99.90
21316;DHT22;10817;55.820;13.030;2024-01-11T14:23:24;1.00;99.90
21316;DHT22;10817;55.820;13.030;2024-01-11T14:25:52;2.80;99.90
21316;DHT22;10817;55.820;13.030;2024-01-11T14:28:21;0.90;99.90
21316;DHT22;10817;55.820;13.030;2024-01-11T14:30:47;0.80;99.90
21316;DHT22;10817;55.820;13.030;2024-01-11T14:33:15;0.80;99.90
21316;DHT22;10817;55.820;13.030;2024-01-11T14:35:44;0.70;99.90
21316;DHT22;10817;55.820;13.030;2024-01-11T14:38:11;0.30;99.90
21316;DHT22;10817;55.820;13.030;2024-01-11T14:40:38;0.30;99.90
21316;DHT22;10817;55.820;13.030;2024-01-11T14:43:08;0.30;99.90
21316;DHT22;10817;55.820;13.030;2024-01-11T14:45:35;0.40;99.90
21316;DHT22;10817;55.820;13.030;2024-01-11T14:48:02;0.30;99.90
21316;DHT22;10817;55.820;13.030;2024-01-11T14:50:29;0.20;99.90
21316;DHT22;10817;55.820;13.030;2024-01-11T14:52:56;0.60;99.90
21316;DHT22;10817;55.820;13.030;2024-01-11T14:55:23;-0.10;99.90
21316;DHT22;10817;55.820;13.030;2024-01-11T14:57:50;-0.10;99.90
21316;DHT22;10817;55.820;13.030;2024-01-11T15:00:18;-0.10;99.90
21316;DHT22;10817;55.820;13.030;2024-01-11T15:02:45;-0.30;99.90
21316;DHT22;10817;55.820;13.030;2024-01-11T15:05:14;1.40;99.90
21316;DHT22;10817;55.820;13.030;2024-01-11T15:07:41;-0.40;99.90
21316;DHT22;10817;55.820;13.030;2024-01-11T15:10:09;-0.50;99.90
21316;DHT22;10817;55.820;13.030;2024-01-11T15:12:36;-0.60;99.90
21316;DHT22;10817;55.820;13.030;2024-01-11T15:15:11;-0.60;99.90
21316;DHT22;10817;55.820;13.030;2024-01-11T15:17:41;-0.70;99.90
21316;DHT22;10817;55.820;13.030;2024-01-11T15:20:09;-0.70;99.90
21316;DHT22;10817;55.820;13.030;2024-01-11T15:22:38;-0.80;99.90
21316;DHT22;10817;55.820;13.030;2024-01-11T15:25:05;-0.90;99.90
21316;DHT22;10817;55.820;13.030;2024-01-11T15:27:32;-1.40;99.90
21316;DHT22;10817;55.820;13.030;2024-01-11T15:29:59;-0.90;99.90
21316;DHT22;10817;55.820;13.030;2024-01-11T15:32:30;-0.90;99.90
21316;DHT22;10817;55.820;13.030;2024-01-11T15:34:58;-1.00;99.90
21316;DHT22;10817;55.820;13.030;2024-01-11T15:37:25;-1.10;99.90
21316;DHT22;10817;55.820;13.030;2024-01-11T15:39:56;-1.20;99.90
21316;DHT22;10817;55.820;13.030;2024-01-11T15:42:23;-1.30;99.90
21316;DHT22;10817;55.820;13.030;2024-01-11T15:44:55;-1.40;99.90
21316;DHT22;10817;55.820;13.030;2024-01-11T15:47:23;-0.80;99.90
21316;DHT22;10817;55.820;13.030;2024-01-11T15:49:50;-1.40;99.90
21316;DHT22;10817;55.820;13.030;2024-01-11T15:52:18;-1.50;99.90
21316;DHT22;10817;55.820;13.030;2024-01-11T15:54:48;-1.50;99.90
21316;DHT22;10817;55.820;13.030;2024-01-11T15:57:17;-1.50;99.90
21316;DHT22;10817;55.820;13.030;2024-01-11T15:59:44;-1.40;99.90
21316;DHT22;10817;55.820;13.030;2024-01-11T16:02:13;-1.40;99.90
21316;DHT22;10817;55.820;13.030;2024-01-11T16:04:41;-1.30;99.90
21316;DHT22;10817;55.820;13.030;2024-01-11T16:07:09;-1.30;99.90
21316;DHT22;10817;55.820;13.030;2024-01-11T16:09:37;-1.30;99.90
21316;DHT22;10817;55.820;13.030;2024-01-11T16:12:05;-1.40;99.90
21316;DHT22;10817;55.820;13.030;2024-01-11T16:14:32;-1.40;99.90
21316;DHT22;10817;55.820;13.030;2024-01-11T16:16:59;-1.50;99.90
21316;DHT22;10817;55.820;13.030;2024-01-11T16:19:25;-1.50;99.90
21316;DHT22;10817;55.820;13.030;2024-01-11T16:21:52;-1.60;99.90
21316;DHT22;10817;55.820;13.030;2024-01-11T16:24:19;-1.70;99.90
21316;DHT22;10817;55.820;13.030;2024-01-11T16:26:47;-1.60;99.90
21316;DHT22;10817;55.820;13.030;2024-01-11T16:29:14;-2.00;99.90
21316;DHT22;10817;55.820;13.030;2024-01-11T16:31:41;-2.10;99.90
21316;DHT22;10817;55.820;13.030;2024-01-11T16:34:07;-2.00;99.90
21316;DHT22;10817;55.820;13.030;2024-01-11T16:36:42;-1.00;99.90
21316;DHT22;10817;55.820;13.030;2024-01-11T16:39:08;-2.10;99.90
21316;DHT22;10817;55.820;13.030;2024-01-11T16:41:36;-2.10;99.90
21316;DHT22;10817;55.820;13.030;2024-01-11T16:44:05;-2.10;99.90
21316;DHT22;10817;55.820;13.030;2024-01-11T16:46:31;-2.00;99.90
21316;DHT22;10817;55.820;13.030;2024-01-11T16:48:58;-2.00;99.90
21316;DHT22;10817;55.820;13.030;2024-01-11T16:51:27;-2.10;99.90
21316;DHT22;10817;55.820;13.030;2024-01-11T16:53:54;-2.20;99.90
21316;DHT22;10817;55.820;13.030;2024-01-11T16:56:21;-2.30;99.90
21316;DHT22;10817;55.820;13.030;2024-01-11T16:58:48;-2.40;99.90
21316;DHT22;10817;55.820;13.030;2024-01-11T17:01:16;-2.30;99.90
21316;DHT22;10817;55.820;13.030;2024-01-11T17:03:43;-2.40;99.90
21316;DHT22;10817;55.820;13.030;2024-01-11T17:06:09;-2.30;99.90
21316;DHT22;10817;55.820;13.030;2024-01-11T17:08:36;-2.10;99.90
21316;DHT22;10817;55.820;13.030;2024-01-11T17:11:07;-2.00;99.90
21316;DHT22;10817;55.820;13.030;2024-01-11T17:14:15;-2.10;99.90
21316;DHT22;10817;55.820;13.030;2024-01-11T17:16:43;-2.40;99.90
21316;DHT22;10817;55.820;13.030;2024-01-11T17:19:10;-2.40;99.90
21316;DHT22;10817;55.820;13.030;2024-01-11T17:21:52;-1.00;99.90
21316;DHT22;10817;55.820;13.030;2024-01-11T17:24:19;-0.80;99.90
21316;DHT22;10817;55.820;13.030;2024-01-11T17:26:46;-2.60;99.90
21316;DHT22;10817;55.820;13.030;2024-01-11T17:29:13;-2.60;99.90
21316;DHT22;10817;55.820;13.030;2024-01-11T17:31:40;-2.90;99.90
21316;DHT22;10817;55.820;13.030;2024-01-11T17:34:11;-2.70;99.90
21316;DHT22;10817;55.820;13.030;2024-01-11T17:36:38;-2.70;99.90
21316;DHT22;10817;55.820;13.030;2024-01-11T17:39:07;-2.70;99.90
21316;DHT22;10817;55.820;13.030;2024-01-11T17:41:37;-2.60;99.90
21316;DHT22;10817;55.820;13.030;2024-01-11T17:44:05;-2.50;99.90
21316;DHT22;10817;55.820;13.030;2024-01-11T17:46:32;-2.60;99.90
21316;DHT22;10817;55.820;13.030;2024-01-11T17:48:59;-2.40;99.90
21316;DHT22;10817;55.820;13.030;2024-01-11T17:51:28;-2.60;99.90
21316;DHT22;10817;55.820;13.030;2024-01-11T17:53:54;-2.80;99.90
21316;DHT22;10817;55.820;13.030;2024-01-11T17:56:21;-0.70;99.90
21316;DHT22;10817;55.820;13.030;2024-01-11T17:58:48;-2.80;99.90
21316;DHT22;10817;55.820;13.030;2024-01-11T18:01:19;-2.80;99.90
21316;DHT22;10817;55.820;13.030;2024-01-11T18:03:47;-3.10;99.90
21316;DHT22;10817;55.820;13.030;2024-01-11T18:06:13;-1.70;99.90
21316;DHT22;10817;55.820;13.030;2024-01-11T18:08:42;-2.70;99.90
21316;DHT22;10817;55.820;13.030;2024-01-11T18:11:09;-2.60;99.90
21316;DHT22;10817;55.820;13.030;2024-01-11T18:13:36;-2.70;99.90
21316;DHT22;10817;55.820;13.030;2024-01-11T18:16:03;-2.80;99.90
21316;DHT22;10817;55.820;13.030;2024-01-11T18:18:31;-2.90;99.90
21316;DHT22;10817;55.820;13.030;2024-01-11T18:20:58;-3.30;99.90
21316;DHT22;10817;55.820;13.030;2024-01-11T18:23:25;-2.60;99.90
21316;DHT22;10817;55.820;13.030;2024-01-11T18:25:54;-2.30;99.90
21316;DHT22;10817;55.820;13.030;2024-01-11T18:28:21;-2.30;99.90
21316;DHT22;10817;55.820;13.030;2024-01-11T18:30:48;-2.40;99.90
21316;DHT22;10817;55.820;13.030;2024-01-11T18:33:15;-2.60;99.90
21316;DHT22;10817;55.820;13.030;2024-01-11T18:35:42;-2.60;99.90
21316;DHT22;10817;55.820;13.030;2024-01-11T18:38:09;-2.60;99.90
21316;DHT22;10817;55.820;13.030;2024-01-11T18:40:36;-2.70;99.90
21316;DHT22;10817;55.820;13.030;2024-01-11T18:43:05;-2.70;99.90
21316;DHT22;10817;55.820;13.030;2024-01-11T18:45:32;-2.70;99.90
21316;DHT22;10817;55.820;13.030;2024-01-11T18:47:59;-3.00;99.90
21316;DHT22;10817;55.820;13.030;2024-01-11T18:50:30;-2.90;99.90
21316;DHT22;10817;55.820;13.030;2024-01-11T18:52:57;-3.20;99.90
21316;DHT22;10817;55.820;13.030;2024-01-11T18:55:24;-3.20;99.90
21316;DHT22;10817;55.820;13.030;2024-01-11T18:57:51;-3.30;99.90
21316;DHT22;10817;55.820;13.030;2024-01-11T19:00:19;-3.10;99.90
21316;DHT22;10817;55.820;13.030;2024-01-11T19:02:46;-3.40;99.90
21316;DHT22;10817;55.820;13.030;2024-01-11T19:05:14;-3.30;99.90
21316;DHT22;10817;55.820;13.030;2024-01-11T19:07:42;-3.60;99.90
21316;DHT22;10817;55.820;13.030;2024-01-11T19:10:09;-3.60;99.90
21316;DHT22;10817;55.820;13.030;2024-01-11T19:12:36;-3.70;99.90
21316;DHT22;10817;55.820;13.030;2024-01-11T19:15:04;-3.60;99.90
21316;DHT22;10817;55.820;13.030;2024-01-11T19:17:32;-3.60;99.90
21316;DHT22;10817;55.820;13.030;2024-01-11T19:19:59;-4.00;99.90
21316;DHT22;10817;55.820;13.030;2024-01-11T19:22:26;-3.60;99.90
21316;DHT22;10817;55.820;13.030;2024-01-11T19:24:53;-3.60;99.90
21316;DHT22;10817;55.820;13.030;2024-01-11T19:27:20;-3.70;99.90
21316;DHT22;10817;55.820;13.030;2024-01-11T19:29:47;-3.70;99.90
21316;DHT22;10817;55.820;13.030;2024-01-11T19:32:14;-1.30;99.90
21316;DHT22;10817;55.820;13.030;2024-01-11T19:34:42;-3.70;99.90
21316;DHT22;10817;55.820;13.030;2024-01-11T19:37:09;-3.80;99.90
21316;DHT22;10817;55.820;13.030;2024-01-11T19:39:36;-3.70;99.90
21316;DHT22;10817;55.820;13.030;2024-01-11T19:42:04;-3.60;99.90
21316;DHT22;10817;55.820;13.030;2024-01-11T19:44:31;-3.60;99.90
21316;DHT22;10817;55.820;13.030;2024-01-11T19:46:58;-3.60;99.90
21316;DHT22;10817;55.820;13.030;2024-01-11T19:49:26;-3.90;99.90
21316;DHT22;10817;55.820;13.030;2024-01-11T19:51:54;-3.90;99.90
21316;DHT22;10817;55.820;13.030;2024-01-11T19:54:21;-4.00;99.90
21316;DHT22;10817;55.820;13.030;2024-01-11T19:56:47;-4.10;99.90
21316;DHT22;10817;55.820;13.030;2024-01-11T19:59:14;-4.00;99.90
21316;DHT22;10817;55.820;13.030;2024-01-11T20:01:42;-4.10;99.90
21316;DHT22;10817;55.820;13.030;2024-01-11T20:04:09;-4.40;99.90
21316;DHT22;10817;55.820;13.030;2024-01-11T20:06:36;-4.40;99.90
21316;DHT22;10817;55.820;13.030;2024-01-11T20:09:04;-4.40;99.90
21316;DHT22;10817;55.820;13.030;2024-01-11T20:11:31;-3.70;99.90
21316;DHT22;10817;55.820;13.030;2024-01-11T20:13:58;-4.20;99.90
21316;DHT22;10817;55.820;13.030;2024-01-11T20:16:25;-4.50;99.90
21316;DHT22;10817;55.820;13.030;2024-01-11T20:18:55;-4.90;99.90
21316;DHT22;10817;55.820;13.030;2024-01-11T20:21:21;-3.10;99.90
21316;DHT22;10817;55.820;13.030;2024-01-11T20:23:48;-3.00;99.90
21316;DHT22;10817;55.820;13.030;2024-01-11T20:26:17;-2.60;99.90
21316;DHT22;10817;55.820;13.030;2024-01-11T20:28:48;-6.30;99.90
21316;DHT22;10817;55.820;13.030;2024-01-11T20:31:15;-3.30;99.90
21316;DHT22;10817;55.820;13.030;2024-01-11T20:33:43;-3.30;99.90
21316;DHT22;10817;55.820;13.030;2024-01-11T20:36:09;-4.60;99.90
21316;DHT22;10817;55.820;13.030;2024-01-11T20:38:37;-5.20;99.90
21316;DHT22;10817;55.820;13.030;2024-01-11T20:41:08;-5.20;99.90
21316;DHT22;10817;55.820;13.030;2024-01-11T20:43:40;-5.20;99.90
21316;DHT22;10817;55.820;13.030;2024-01-11T20:46:08;-5.20;99.90
21316;DHT22;10817;55.820;13.030;2024-01-11T20:48:35;-4.20;99.90
21316;DHT22;10817;55.820;13.030;2024-01-11T20:51:04;-1.80;99.90
21316;DHT22;10817;55.820;13.030;2024-01-11T20:53:35;-4.50;99.90
21316;DHT22;10817;55.820;13.030;2024-01-11T20:56:02;-4.70;99.90
21316;DHT22;10817;55.820;13.030;2024-01-11T20:58:29;-4.70;99.90
21316;DHT22;10817;55.820;13.030;2024-01-11T21:00:57;-5.00;99.90
21316;DHT22;10817;55.820;13.030;2024-01-11T21:03:24;-3.90;99.90
21316;DHT22;10817;55.820;13.030;2024-01-11T21:05:51;-5.00;99.90
21316;DHT22;10817;55.820;13.030;2024-01-11T21:08:22;-5.30;99.90
21316;DHT22;10817;55.820;13.030;2024-01-11T21:10:53;-5.00;99.90
21316;DHT22;10817;55.820;13.030;2024-01-11T21:13:26;-5.60;99.90
21316;DHT22;10817;55.820;13.030;2024-01-11T21:15:53;-5.60;99.90
21316;DHT22;10817;55.820;13.030;2024-01-11T21:18:24;-4.90;99.90
21316;DHT22;10817;55.820;13.030;2024-01-11T21:20:57;-5.90;99.90
21316;DHT22;10817;55.820;13.030;2024-01-11T21:23:29;-5.70;99.90
21316;DHT22;10817;55.820;13.030;2024-01-11T21:26:02;-5.70;99.90
21316;DHT22;10817;55.820;13.030;2024-01-11T21:28:32;-3.20;99.90
21316;DHT22;10817;55.820;13.030;2024-01-11T21:30:58;-5.70;99.90
21316;DHT22;10817;55.820;13.030;2024-01-11T21:33:27;-5.70;99.90
21316;DHT22;10817;55.820;13.030;2024-01-11T21:35:53;-3.90;99.90
21316;DHT22;10817;55.820;13.030;2024-01-11T21:38:20;-5.80;99.90
21316;DHT22;10817;55.820;13.030;2024-01-11T21:40:47;-5.80;99.90
21316;DHT22;10817;55.820;13.030;2024-01-11T21:43:14;-5.70;99.90
21316;DHT22;10817;55.820;13.030;2024-01-11T21:45:40;-5.90;99.90
21316;DHT22;10817;55.820;13.030;2024-01-11T21:48:07;-6.00;99.90
21316;DHT22;10817;55.820;13.030;2024-01-11T21:50:35;-5.90;99.90
21316;DHT22;10817;55.820;13.030;2024-01-11T21:53:03;-5.70;99.90
21316;DHT22;10817;55.820;13.030;2024-01-11T21:55:30;-5.70;99.90
21316;DHT22;10817;55.820;13.030;2024-01-11T21:57:58;-5.70;99.90
21316;DHT22;10817;55.820;13.030;2024-01-11T22:00:25;-5.80;99.90
21316;DHT22;10817;55.820;13.030;2024-01-11T22:02:51;-5.80;99.90
21316;DHT22;10817;55.820;13.030;2024-01-11T22:05:18;-5.90;99.90
21316;DHT22;10817;55.820;13.030;2024-01-11T22:07:46;-6.00;99.90
21316;DHT22;10817;55.820;13.030;2024-01-11T22:10:14;-6.00;99.90
21316;DHT22;10817;55.820;13.030;2024-01-11T22:12:41;-6.10;99.90
21316;DHT22;10817;55.820;13.030;2024-01-11T22:15:08;-6.20;99.90
21316;DHT22;10817;55.820;13.030;2024-01-11T22:17:35;-6.20;99.90
21316;DHT22;10817;55.820;13.030;2024-01-11T22:20:02;-6.20;99.90
21316;DHT22;10817;55.820;13.030;2024-01-11T22:22:31;-6.10;99.90
21316;DHT22;10817;55.820;13.030;2024-01-11T22:24:59;-6.00;99.90
21316;DHT22;10817;55.820;13.030;2024-01-11T22:27:25;-6.20;99.90
21316;DHT22;10817;55.820;13.030;2024-01-11T22:29:53;-6.30;99.90
21316;DHT22;10817;55.820;13.030;2024-01-11T22:32:19;-6.30;99.90
21316;DHT22;10817;55.820;13.030;2024-01-11T22:34:46;-6.30;99.90
21316;DHT22;10817;55.820;13.030;2024-01-11T22:37:13;-6.10;99.90
21316;DHT22;10817;55.820;13.030;2024-01-11T22:39:40;-5.80;99.90
21316;DHT22;10817;55.820;13.030;2024-01-11T22:42:08;-5.60;99.90
21316;DHT22;10817;55.820;13.030;2024-01-11T22:44:35;-5.50;99.90
21316;DHT22;10817;55.820;13.030;2024-01-11T22:47:02;-5.60;99.90
21316;DHT22;10817;55.820;13.030;2024-01-11T22:49:29;-5.70;99.90
21316;DHT22;10817;55.820;13.030;2024-01-11T22:51:56;-5.70;99.90
21316;DHT22;10817;55.820;13.030;2024-01-11T22:54:23;-6.00;99.90
21316;DHT22;10817;55.820;13.030;2024-01-11T22:56:49;-6.10;99.90
21316;DHT22;10817;55.820;13.030;2024-01-11T22:59:22;-6.30;99.90
21316;DHT22;10817;55.820;13.030;2024-01-11T23:01:49;-6.20;99.90
21316;DHT22;10817;55.820;13.030;2024-01-11T23:04:16;-6.10;99.90
21316;DHT22;10817;55.820;13.030;2024-01-11T23:06:55;-5.90;99.90
21316;DHT22;10817;55.820;13.030;2024-01-11T23:09:22;-5.80;99.90
21316;DHT22;10817;55.820;13.030;2024-01-11T23:11:49;-5.90;99.90
21316;DHT22;10817;55.820;13.030;2024-01-11T23:14:16;-5.80;99.90
21316;DHT22;10817;55.820;13.030;2024-01-11T23:16:45;-5.70;99.90
21316;DHT22;10817;55.820;13.030;2024-01-11T23:19:12;-5.50;99.90
21316;DHT22;10817;55.820;13.030;2024-01-11T23:21:39;-5.60;99.90
21316;DHT22;10817;55.820;13.030;2024-01-11T23:24:06;-5.60;99.90
21316;DHT22;10817;55.820;13.030;2024-01-11T23:26:34;-5.70;99.90
21316;DHT22;10817;55.820;13.030;2024-01-11T23:29:01;-5.70;99.90
21316;DHT22;10817;55.820;13.030;2024-01-11T23:31:28;-5.80;99.90
21316;DHT22;10817;55.820;13.030;2024-01-11T23:33:57;-5.90;99.90
21316;DHT22;10817;55.820;13.030;2024-01-11T23:36:23;-5.90;99.90
21316;DHT22;10817;55.820;13.030;2024-01-11T23:38:50;-5.80;99.90
21316;DHT22;10817;55.820;13.030;2024-01-11T23:41:17;-5.80;99.90
21316;DHT22;10817;55.820;13.030;2024-01-11T23:43:44;-5.90;99.90
21316;DHT22;10817;55.820;13.030;2024-01-11T23:46:11;-5.90;99.90
21316;DHT22;10817;55.820;13.030;2024-01-11T23:48:38;-6.10;99.90
21316;DHT22;10817;55.820;13.030;2024-01-11T23:51:06;-6.20;99.90
21316;DHT22;10817;55.820;13.030;2024-01-11T23:53:33;-6.20;99.90
21316;DHT22;10817;55.820;13.030;2024-01-11T23:56:00;-6.30;99.90
21316;DHT22;10817;55.820;13.030;2024-01-11T23:58:28;-6.30;99.90
